Time;durP1;ratioP1;P1;durP2;ratioP2;P2;SDS_P1;SDS_P2;PMS_P1;PMS_P2;Temp;Humidity;BMP_temperature;BMP_pressure;BME280_temperature;BME280_humidity;BME280_pressure;Samples;Min_cycle;Max_cycle;Signal;HPM_P1;HPM_P2
2022/12/25 00:01:10;;;;;;;3.38;2.00;;;;;;;21.21;36.68;101422.56;5067372;28;20032;-63
2022/12/25 00:03:37;;;;;;;2.97;2.08;;;;;;;21.20;36.76;101425.38;5065323;28;20038;-63
2022/12/25 00:06:02;;;;;;;4.00;1.90;;;;;;;21.12;36.61;101408.53;5063874;28;20040;-64
2022/12/25 00:08:28;;;;;;;3.65;2.28;;;;;;;21.15;36.75;101412.66;5064138;28;20052;-63
2022/12/25 00:11:01;;;;;;;3.03;2.00;;;;;;;21.17;36.78;101415.13;5064990;28;20052;-63
2022/12/25 00:13:26;;;;;;;3.28;1.92;;;;;;;21.18;36.53;101420.22;5067030;28;20108;-63
2022/12/25 00:15:52;;;;;;;3.25;2.00;;;;;;;21.12;36.50;101407.69;5069428;28;20039;-64
2022/12/25 00:18:18;;;;;;;2.40;1.77;;;;;;;21.15;36.77;101415.28;5067995;28;20587;-63
2022/12/25 00:20:43;;;;;;;4.07;2.08;;;;;;;21.21;36.56;101405.84;5067952;28;20036;-63
2022/12/25 00:23:09;;;;;;;2.40;2.00;;;;;;;21.16;36.40;101400.22;5066901;28;20054;-63
2022/12/25 00:25:38;;;;;;;2.40;2.20;;;;;;;21.14;36.82;101395.09;5071455;28;20044;-63
2022/12/25 00:28:04;;;;;;;2.78;2.20;;;;;;;21.16;36.75;101393.09;5069497;28;20040;-63
2022/12/25 00:30:29;;;;;;;2.40;1.88;;;;;;;21.11;36.78;101384.88;5070941;28;20688;-63
2022/12/25 00:32:55;;;;;;;2.65;2.00;;;;;;;21.11;36.52;101392.81;5064607;28;20044;-63
2022/12/25 00:35:20;;;;;;;2.65;1.88;;;;;;;21.13;36.67;101383.69;5064485;28;20048;-63
2022/12/25 00:37:46;;;;;;;2.47;2.03;;;;;;;21.14;36.75;101389.81;5068119;28;20048;-64
2022/12/25 00:40:12;;;;;;;3.50;2.20;;;;;;;21.12;36.76;101392.63;5063908;28;20624;-63
2022/12/25 00:42:37;;;;;;;2.40;1.90;;;;;;;21.09;36.83;101390.34;5058426;28;20046;-63
2022/12/25 00:45:04;;;;;;;3.35;2.13;;;;;;;21.05;36.83;101391.69;5060340;28;20506;-63
2022/12/25 00:47:30;;;;;;;3.42;2.05;;;;;;;21.07;36.75;101392.34;5065458;28;21207;-63
2022/12/25 00:49:55;;;;;;;3.25;1.98;;;;;;;21.10;36.62;101399.09;5064626;28;20051;-63
2022/12/25 00:52:21;;;;;;;2.40;2.10;;;;;;;21.08;36.52;101401.09;5065982;28;20052;-63
2022/12/25 00:54:46;;;;;;;3.15;1.98;;;;;;;21.06;36.75;101395.16;5068935;28;20040;-63
2022/12/25 00:57:12;;;;;;;3.45;2.22;;;;;;;21.05;36.81;101390.88;5065721;28;20398;-63
2022/12/25 00:59:37;;;;;;;2.75;2.25;;;;;;;21.00;36.78;101380.78;5070484;28;20055;-63
2022/12/25 01:04:48;;;;;;;2.33;1.88;;;;;;;21.06;36.61;101388.03;5065680;28;20204;-63
2022/12/25 01:07:15;;;;;;;2.50;1.90;;;;;;;21.08;36.60;101399.28;5065906;28;20217;-63
2022/12/25 01:12:26;;;;;;;3.47;2.17;;;;;;;21.09;36.60;101395.63;5056614;28;20919;-63
2022/12/25 01:14:51;;;;;;;2.60;1.90;;;;;;;21.07;36.86;101395.00;5064672;28;20035;-64
2022/12/25 01:17:17;;;;;;;3.78;1.95;;;;;;;21.06;36.90;101392.53;5067809;28;20052;-63
2022/12/25 01:19:42;;;;;;;2.70;2.05;;;;;;;21.07;36.77;101392.34;5063153;28;20059;-63
2022/12/25 01:22:08;;;;;;;3.80;2.10;;;;;;;21.04;36.76;101394.53;5062153;28;20048;-63
2022/12/25 01:24:34;;;;;;;2.70;1.90;;;;;;;21.11;36.45;101404.22;5069427;28;20028;-64
2022/12/25 01:26:59;;;;;;;2.75;1.80;;;;;;;21.25;36.23;101401.88;5069164;28;22628;-64
2022/12/25 01:29:25;;;;;;;3.63;2.05;;;;;;;21.30;36.56;101399.50;5060590;28;20404;-64
2022/12/25 01:31:50;;;;;;;2.83;2.30;;;;;;;21.30;36.43;101405.63;5061081;28;20043;-64
2022/12/25 01:34:16;;;;;;;2.90;2.10;;;;;;;21.27;36.22;101402.50;5059888;28;20047;-63
2022/12/25 01:36:41;;;;;;;2.97;2.40;;;;;;;21.26;36.49;101407.00;5068761;28;21855;-64
2022/12/25 01:39:07;;;;;;;4.35;2.28;;;;;;;21.21;36.70;101417.25;5064084;28;20133;-64
2022/12/25 01:41:32;;;;;;;3.42;2.13;;;;;;;21.24;36.59;101426.69;5062669;28;20031;-63
2022/12/25 01:44:15;;;;;;;3.97;2.00;;;;;;;21.20;36.39;101435.97;5064857;28;20371;-63
2022/12/25 01:46:42;;;;;;;2.38;1.80;;;;;;;21.24;36.60;101437.28;5066696;28;20120;-63
2022/12/25 01:49:21;;;;;;;3.28;2.10;;;;;;;21.18;36.83;101438.78;5060474;28;20042;-63
2022/12/25 01:51:52;;;;;;;4.18;2.00;;;;;;;21.18;36.74;101430.00;5064995;28;20122;-63
2022/12/25 01:54:28;;;;;;;2.00;1.80;;;;;;;21.21;36.46;101422.56;5065262;28;20044;-64
2022/12/25 01:56:59;;;;;;;3.33;2.03;;;;;;;21.15;36.67;101428.53;5061375;28;20040;-65
2022/12/25 01:59:26;;;;;;;3.10;2.25;;;;;;;21.14;36.72;101424.22;5063693;28;20038;-67
2022/12/25 02:01:52;;;;;;;3.55;2.00;;;;;;;21.13;36.75;101422.59;5065203;28;20517;-64
2022/12/25 02:04:40;;;;;;;3.95;2.17;;;;;;;21.20;36.40;101423.56;5052130;28;20056;-63
2022/12/25 02:07:09;;;;;;;2.15;1.85;;;;;;;21.13;36.50;101418.13;5069129;28;20039;-63
2022/12/25 02:09:36;;;;;;;4.20;2.57;;;;;;;21.17;36.66;101423.06;5066663;28;20036;-63
2022/12/25 02:12:03;;;;;;;2.67;1.80;;;;;;;21.18;36.72;101420.22;5069084;28;21098;-64
2022/12/25 02:14:32;;;;;;;2.53;1.75;;;;;;;21.14;36.79;101429.53;5069137;28;20044;-64
2022/12/25 02:17:12;;;;;;;3.15;2.28;;;;;;;21.07;36.78;101426.75;5070322;28;20036;-64
2022/12/25 02:19:55;;;;;;;5.15;2.30;;;;;;;21.09;36.69;101430.06;5073100;28;20040;-64
2022/12/25 02:22:49;;;;;;;2.70;2.25;;;;;;;21.09;36.75;101424.75;5068093;28;20559;-64
2022/12/25 02:25:17;;;;;;;3.72;2.30;;;;;;;21.11;36.74;101422.75;5071050;28;20051;-64
2022/12/25 02:27:51;;;;;;;3.42;2.30;;;;;;;21.05;36.76;101422.66;5072954;28;20032;-64
2022/12/25 02:30:17;;;;;;;2.95;2.33;;;;;;;21.07;36.60;101418.00;5065175;28;20381;-64
2022/12/25 02:34:01;;;;;;;3.53;2.10;;;;;;;21.04;36.63;101413.06;5076267;28;20128;-64
2022/12/25 02:35:40;;;;;;;2.85;2.17;;;;;;;21.06;36.65;101416.34;5070581;28;20112;-64
2022/12/25 02:38:18;;;;;;;2.70;2.10;;;;;;;21.07;36.84;101423.28;5063327;28;20083;-64
2022/12/25 02:40:50;;;;;;;2.90;2.00;;;;;;;21.04;36.86;101421.81;5065850;28;20032;-64
2022/12/25 03:08:46;;;;;;;3.72;2.25;;;;;;;21.11;36.66;101411.34;5064727;28;20055;-64
2022/12/25 03:11:30;;;;;;;3.33;2.15;;;;;;;21.20;36.48;101415.63;5069117;28;20031;-64
2022/12/25 03:16:55;;;;;;;2.67;2.25;;;;;;;21.18;36.51;101408.81;5069377;28;20051;-64
2022/12/25 03:27:44;;;;;;;3.50;2.20;;;;;;;21.05;36.73;101367.03;5071811;28;20040;-64
2022/12/25 03:33:14;;;;;;;2.95;2.00;;;;;;;21.11;36.84;101343.31;5073350;28;20050;-63
2022/12/25 03:36:13;;;;;;;2.92;2.08;;;;;;;21.10;36.73;101360.22;5071973;28;20052;-64
2022/12/25 04:37:13;;;;;;;3.03;2.15;;;;;;;21.21;36.38;101321.09;5067455;28;20079;-64
2022/12/25 04:39:39;;;;;;;2.85;2.05;;;;;;;21.19;36.58;101325.75;5069271;28;20117;-64
2022/12/25 04:42:04;;;;;;;3.22;1.85;;;;;;;21.12;36.77;101317.66;5068932;28;20045;-64
2022/12/25 04:44:30;;;;;;;2.83;2.03;;;;;;;21.17;36.58;101323.25;5065110;28;20051;-64
2022/12/25 04:46:55;;;;;;;2.63;1.80;;;;;;;21.15;36.98;101333.19;5065211;28;20437;-64
2022/12/25 04:49:21;;;;;;;2.92;2.03;;;;;;;21.12;36.99;101326.44;5065417;28;20544;-63
2022/12/25 04:51:46;;;;;;;3.00;2.22;;;;;;;21.16;36.63;101320.78;5066061;28;20048;-64
2022/12/25 04:54:12;;;;;;;2.38;2.00;;;;;;;21.08;36.64;101309.25;5064640;28;20100;-64
2022/12/25 04:56:37;;;;;;;2.65;2.00;;;;;;;21.17;36.69;101320.59;5065268;28;20048;-64
2022/12/25 04:59:03;;;;;;;2.88;2.05;;;;;;;21.08;36.78;101319.84;5068173;28;20031;-64
2022/12/25 05:01:28;;;;;;;3.40;2.05;;;;;;;21.11;36.66;101324.78;5063922;28;20036;-63
2022/12/25 05:03:54;;;;;;;2.92;2.22;;;;;;;21.12;36.49;101329.06;5064492;28;20051;-64
2022/12/25 05:06:20;;;;;;;2.60;2.10;;;;;;;21.15;36.57;101327.06;5064483;28;20059;-63
2022/12/25 05:08:45;;;;;;;2.65;2.00;;;;;;;21.12;36.68;101336.19;5066437;28;20428;-64
2022/12/25 05:11:14;;;;;;;2.42;2.15;;;;;;;21.12;36.80;101336.19;5064255;28;20106;-64
2022/12/25 05:13:40;;;;;;;2.83;2.00;;;;;;;21.10;36.65;101348.78;5068934;28;20032;-64
2022/12/25 05:16:07;;;;;;;2.20;2.00;;;;;;;21.08;36.70;101348.97;5069511;28;20043;-64
2022/12/25 05:18:33;;;;;;;2.83;2.08;;;;;;;21.07;36.90;101351.78;5067599;28;20048;-64
2022/12/25 05:20:59;;;;;;;2.55;1.92;;;;;;;21.09;36.64;101352.44;5068511;28;20081;-64
2022/12/25 05:23:24;;;;;;;3.63;2.20;;;;;;;21.04;36.68;101358.28;5068662;28;20078;-64
2022/12/25 05:25:50;;;;;;;2.88;2.17;;;;;;;21.07;36.82;101354.44;5068699;28;20040;-64
2022/12/25 05:28:16;;;;;;;3.00;1.80;;;;;;;21.00;37.04;101346.34;5064432;28;20032;-63
2022/12/25 05:30:41;;;;;;;2.40;2.10;;;;;;;21.02;36.68;101351.50;5067795;28;20040;-64
2022/12/25 05:33:07;;;;;;;2.20;1.80;;;;;;;21.02;36.75;101349.69;5064789;28;20338;-64
2022/12/25 05:35:35;;;;;;;3.40;2.38;;;;;;;21.03;36.70;101339.91;5065995;28;20104;-64
2022/12/25 05:38:01;;;;;;;2.70;2.10;;;;;;;21.03;36.95;101339.91;5066992;28;20114;-64
2022/12/25 05:40:26;;;;;;;1.83;1.63;;;;;;;21.02;36.78;101338.25;5062778;28;22072;-63
2022/12/25 05:42:52;;;;;;;2.47;2.17;;;;;;;21.00;37.03;101334.94;5067329;28;20032;-64
2022/12/25 05:45:17;;;;;;;2.83;2.10;;;;;;;20.91;36.81;101318.28;5066645;28;20079;-64
2022/12/25 05:47:42;;;;;;;2.75;1.80;;;;;;;21.01;36.73;101331.31;5068244;28;20494;-63
2022/12/25 05:50:08;;;;;;;2.65;2.08;;;;;;;21.05;36.82;101328.16;5069485;28;20044;-64
2022/12/25 05:52:34;;;;;;;2.90;2.00;;;;;;;21.10;36.51;101328.44;5068950;28;20044;-64
2022/12/25 05:55:00;;;;;;;2.97;1.90;;;;;;;21.18;36.46;101335.47;5061040;28;20036;-64
2022/12/25 05:57:28;;;;;;;2.72;2.15;;;;;;;21.16;36.63;101334.84;5069567;28;20536;-63
2022/12/25 05:59:54;;;;;;;3.20;2.30;;;;;;;21.24;36.55;101328.69;5063203;28;20028;-62
2022/12/25 06:02:20;;;;;;;2.92;2.10;;;;;;;21.20;36.69;101317.63;5058386;28;20758;-64
2022/12/25 06:04:45;;;;;;;2.63;1.95;;;;;;;21.22;36.34;101314.78;5063996;28;20054;-64
2022/12/25 06:07:11;;;;;;;3.33;2.20;;;;;;;21.21;36.29;101321.09;5066640;28;20032;-64
2022/12/25 06:09:36;;;;;;;2.65;2.00;;;;;;;21.13;36.67;101317.47;5062904;28;20119;-64
2022/12/25 06:12:02;;;;;;;3.42;2.10;;;;;;;21.15;36.55;101319.94;5065983;28;20089;-64
2022/12/25 06:14:28;;;;;;;2.10;1.90;;;;;;;21.15;36.51;101316.47;5066700;28;20040;-64
2022/12/25 06:16:53;;;;;;;2.17;1.90;;;;;;;21.17;36.75;101314.47;5066431;28;20405;-63
2022/12/25 06:19:20;;;;;;;2.05;1.75;;;;;;;21.13;36.61;101316.66;5069052;28;21323;-63
2022/12/25 06:21:46;;;;;;;2.25;1.80;;;;;;;21.11;36.63;101323.97;5067148;28;20035;-63
2022/12/25 06:24:12;;;;;;;2.92;2.10;;;;;;;21.12;36.81;101312.38;5068866;28;20043;-64
2022/12/25 06:26:37;;;;;;;2.90;2.17;;;;;;;21.10;36.92;101317.84;5067912;28;21994;-64
2022/12/25 06:29:03;;;;;;;2.67;1.88;;;;;;;21.07;36.70;101315.56;5067425;28;20575;-64
2022/12/25 06:31:29;;;;;;;2.13;1.88;;;;;;;21.07;36.76;101304.97;5067965;28;20059;-64
2022/12/25 06:33:54;;;;;;;2.20;1.95;;;;;;;21.10;36.65;101293.19;5065025;28;20040;-64
2022/12/25 06:36:25;;;;;;;2.63;2.00;;;;;;;21.08;36.89;101290.72;5066038;28;20063;-64
2022/12/25 06:38:50;;;;;;;2.13;1.92;;;;;;;21.10;36.87;101294.00;5068184;28;20063;-63
2022/12/25 06:41:21;;;;;;;2.30;2.00;;;;;;;21.06;36.97;101289.25;5067204;28;20111;-64
2022/12/25 06:43:49;;;;;;;4.70;2.53;;;;;;;21.04;36.92;101284.13;5066397;28;20043;-64
2022/12/25 06:46:14;;;;;;;2.90;2.08;;;;;;;21.05;36.80;101282.31;5067648;28;20092;-64
2022/12/25 06:48:48;;;;;;;4.55;2.20;;;;;;;21.08;36.92;101284.59;5060053;28;20171;-63
2022/12/25 06:51:18;;;;;;;3.08;2.03;;;;;;;21.08;36.99;101274.00;5064934;28;20104;-64
2022/12/25 06:53:44;;;;;;;2.67;1.88;;;;;;;21.04;36.71;101285.97;5066535;28;20052;-64
2022/12/25 06:56:15;;;;;;;2.40;2.00;;;;;;;21.11;36.80;101266.53;5066555;28;20028;-64
2022/12/25 06:58:46;;;;;;;3.88;2.05;;;;;;;21.13;36.53;101275.09;5065386;28;20773;-64
2022/12/25 07:01:29;;;;;;;2.70;2.00;;;;;;;21.10;36.62;101270.19;5067898;28;20028;-64
2022/12/25 07:03:58;;;;;;;2.90;1.90;;;;;;;21.09;36.77;101267.69;5071470;28;20051;-63
2022/12/25 07:06:24;;;;;;;2.13;1.65;;;;;;;21.12;36.83;101265.53;5069962;28;20046;-64
2022/12/25 07:08:50;;;;;;;3.22;2.00;;;;;;;21.09;36.89;101276.47;5066379;28;20036;-64
2022/12/25 07:11:15;;;;;;;2.20;1.90;;;;;;;21.10;36.89;101270.19;5066920;28;20366;-63
2022/12/25 07:13:41;;;;;;;2.70;1.90;;;;;;;21.09;36.63;101268.53;5069003;28;20067;-63
2022/12/25 07:16:06;;;;;;;2.08;1.80;;;;;;;21.11;36.77;101274.47;5071508;28;20048;-63
2022/12/25 07:18:33;;;;;;;1.95;1.73;;;;;;;21.11;36.75;101269.16;5073946;28;20062;-63
2022/12/25 07:21:05;;;;;;;3.13;2.10;;;;;;;21.15;36.85;101264.34;5072176;28;20575;-63
2022/12/25 07:23:30;;;;;;;2.30;1.80;;;;;;;21.12;36.72;101268.16;5074843;28;20097;-63
2022/12/25 07:25:58;;;;;;;2.78;1.83;;;;;;;21.24;36.68;101271.25;5072025;28;20490;-63
2022/12/25 07:28:24;;;;;;;2.50;2.30;;;;;;;21.18;36.77;101263.16;5073506;28;20028;-63
2022/12/25 07:30:50;;;;;;;2.05;1.75;;;;;;;21.19;36.70;101260.34;5069035;28;20060;-63
2022/12/25 07:33:16;;;;;;;2.33;1.80;;;;;;;21.17;36.86;101258.84;5074238;28;20039;-63
2022/12/25 07:35:42;;;;;;;2.42;1.90;;;;;;;21.16;36.94;101258.03;5068235;28;20112;-62
2022/12/25 07:38:08;;;;;;;2.40;1.80;;;;;;;21.21;36.77;101260.19;5050045;28;20036;-63
2022/12/25 07:40:34;;;;;;;2.65;2.00;;;;;;;21.20;36.76;101264.66;5070437;28;20063;-63
2022/12/25 07:43:00;;;;;;;2.03;1.70;;;;;;;21.20;36.79;101274.41;5072358;28;20036;-63
2022/12/25 07:45:25;;;;;;;2.90;2.22;;;;;;;21.17;36.97;101280.03;5070375;28;20100;-63
2022/12/25 07:47:51;;;;;;;2.00;1.80;;;;;;;21.21;36.61;101276.06;5068943;28;20032;-63
2022/12/25 07:50:17;;;;;;;3.05;2.10;;;;;;;21.12;36.90;101284.06;5067097;28;20505;-63
2022/12/25 07:52:42;;;;;;;3.10;1.92;;;;;;;21.18;37.07;101287.00;5067074;28;21667;-63
2022/12/25 07:55:08;;;;;;;2.35;2.00;;;;;;;21.19;37.09;101280.72;5065717;28;20062;-63
2022/12/25 07:57:35;;;;;;;2.67;2.20;;;;;;;21.18;37.06;101282.50;5064500;28;20098;-63
2022/12/25 08:00:02;;;;;;;2.17;1.95;;;;;;;21.20;37.01;101291.13;5067021;28;20036;-63
2022/12/25 08:02:37;;;;;;;2.00;1.90;;;;;;;21.13;37.20;101296.28;5068986;28;20769;-63
2022/12/25 08:05:03;;;;;;;2.40;2.00;;;;;;;21.10;37.02;101301.94;5063705;28;20081;-63
2022/12/25 08:07:28;;;;;;;3.03;2.17;;;;;;;21.15;36.95;101312.00;5065348;28;20032;-62
2022/12/25 08:09:54;;;;;;;2.55;2.00;;;;;;;21.15;37.12;101316.47;5065468;28;20047;-63
2022/12/25 08:12:19;;;;;;;3.00;1.90;;;;;;;21.09;37.11;101321.50;5065521;28;20735;-63
2022/12/25 08:14:45;;;;;;;1.90;1.73;;;;;;;21.10;37.20;101317.00;5073236;28;20055;-62
2022/12/25 08:17:10;;;;;;;2.38;2.03;;;;;;;21.11;36.96;101314.19;5069293;28;20041;-61
2022/12/25 08:19:36;;;;;;;2.30;1.80;;;;;;;21.11;37.03;101305.41;5069314;28;20044;-61
2022/12/25 08:22:05;;;;;;;2.50;1.90;;;;;;;21.13;37.08;101306.88;5066889;28;20040;-62
2022/12/25 08:24:30;;;;;;;2.53;1.98;;;;;;;21.10;37.29;101309.91;5067137;28;20040;-63
2022/12/25 08:26:56;;;;;;;1.85;1.75;;;;;;;21.15;37.10;101305.88;5067586;28;20036;-62
2022/12/25 08:29:21;;;;;;;1.80;1.70;;;;;;;21.12;37.07;101312.38;5067384;28;20040;-62
2022/12/25 08:31:47;;;;;;;2.42;1.92;;;;;;;21.07;37.02;101318.19;5071846;28;20036;-62
2022/12/25 08:34:13;;;;;;;1.80;1.65;;;;;;;21.11;37.04;101323.97;5070214;28;20055;-62
2022/12/25 08:36:40;;;;;;;1.92;1.83;;;;;;;21.10;37.15;101333.72;5071825;28;20474;-62
2022/12/25 08:39:06;;;;;;;2.25;1.70;;;;;;;21.08;37.17;101324.31;5068127;28;20610;-62
2022/12/25 08:41:32;;;;;;;1.80;1.70;;;;;;;21.04;37.18;101307.13;5069950;28;20042;-62
2022/12/25 08:43:57;;;;;;;2.90;1.92;;;;;;;21.05;36.98;101303.50;5076933;28;20481;-62
2022/12/25 08:46:23;;;;;;;1.85;1.70;;;;;;;21.06;37.21;101299.84;5070230;28;20054;-62
2022/12/25 08:48:49;;;;;;;1.83;1.67;;;;;;;21.04;37.03;101315.91;5070158;28;20686;-62
2022/12/25 08:51:18;;;;;;;2.80;1.83;;;;;;;21.06;37.16;101311.25;5068054;28;20131;-62
2022/12/25 08:53:45;;;;;;;2.60;1.90;;;;;;;21.07;37.15;101312.06;5069903;28;20089;-62
2022/12/25 08:56:11;;;;;;;2.47;1.83;;;;;;;21.05;37.29;101322.84;5070939;28;20036;-62
2022/12/25 08:58:37;;;;;;;2.42;1.77;;;;;;;21.02;37.17;101309.16;5070877;28;20060;-62
2022/12/25 09:01:03;;;;;;;2.70;1.77;;;;;;;21.04;37.16;101297.38;5073126;28;20081;-62
2022/12/25 09:03:32;;;;;;;1.67;1.58;;;;;;;21.05;37.20;101301.66;5067261;28;20432;-62
2022/12/25 09:06:09;;;;;;;1.58;1.48;;;;;;;21.03;37.19;101314.25;5069171;28;20324;-62
2022/12/25 09:08:36;;;;;;;1.95;1.80;;;;;;;21.06;37.33;101319.19;5069237;28;20040;-62
2022/12/25 09:11:03;;;;;;;2.13;1.70;;;;;;;21.05;37.16;101311.44;5068462;28;20078;-62
2022/12/25 09:13:29;;;;;;;1.83;1.70;;;;;;;21.04;37.16;101315.09;5069922;28;20143;-62
2022/12/25 09:15:54;;;;;;;2.90;1.67;;;;;;;21.04;37.39;101310.59;5070491;28;20115;-62
2022/12/25 09:18:20;;;;;;;2.58;1.90;;;;;;;21.04;37.11;101312.44;5067409;28;20552;-62
2022/12/25 09:20:46;;;;;;;2.17;1.70;;;;;;;21.09;37.01;101316.19;5070917;28;20032;-62
2022/12/25 09:23:11;;;;;;;2.08;1.48;;;;;;;21.22;36.83;101309.50;5072319;28;20500;-62
2022/12/25 09:25:37;;;;;;;1.90;1.50;;;;;;;21.37;36.56;101310.41;5064733;28;20040;-62
2022/12/25 09:28:02;;;;;;;2.50;1.92;;;;;;;21.42;36.47;101305.38;5070589;28;20040;-62
2022/12/25 09:30:28;;;;;;;2.35;1.80;;;;;;;21.43;36.63;101307.03;5068289;28;20977;-62
2022/12/25 09:32:53;;;;;;;1.30;1.20;;;;;;;21.41;36.53;101299.25;5070696;28;20055;-62
2022/12/25 09:35:19;;;;;;;1.67;1.40;;;;;;;21.38;36.93;101309.41;5071340;28;20048;-63
2022/12/25 09:37:44;;;;;;;1.50;1.40;;;;;;;21.34;37.05;101303.59;5074684;28;20075;-62
2022/12/25 09:40:17;;;;;;;1.52;1.35;;;;;;;21.25;36.87;101298.56;5072682;28;20036;-62
2022/12/25 09:42:43;;;;;;;1.83;1.50;;;;;;;21.23;36.88;101298.72;5065535;28;20040;-63
2022/12/25 09:45:23;;;;;;;1.73;1.55;;;;;;;21.13;37.49;101304.25;5070498;28;20398;-63
2022/12/25 09:47:54;;;;;;;1.42;1.33;;;;;;;21.10;37.19;101301.13;5071856;28;20053;-62
2022/12/25 09:50:27;;;;;;;2.00;1.90;;;;;;;21.21;37.06;101291.97;5067814;28;20032;-62
2022/12/25 09:53:14;;;;;;;2.25;1.90;;;;;;;21.20;37.23;101291.13;5069214;28;20040;-62
2022/12/25 09:56:02;;;;;;;1.73;1.63;;;;;;;21.08;37.45;101296.00;5069796;28;20032;-63
2022/12/25 09:58:31;;;;;;;1.00;1.00;;;;;;;21.15;37.12;101303.25;5068854;28;20052;-62
2022/12/25 10:01:17;;;;;;;1.70;1.60;;;;;;;21.17;37.38;101285.34;5068327;28;20624;-62
2022/12/25 10:04:04;;;;;;;2.22;1.50;;;;;;;21.21;37.35;101281.38;5067900;28;20040;-61
2022/12/25 10:06:58;;;;;;;1.60;1.50;;;;;;;21.16;37.34;101273.94;5068629;28;20035;-62
2022/12/25 10:09:44;;;;;;;2.45;1.40;;;;;;;21.16;37.23;101263.34;5064330;28;20454;-62
2022/12/25 10:12:36;;;;;;;2.00;1.75;;;;;;;21.16;37.39;101270.47;5069080;28;20040;-62
2022/12/25 10:15:31;;;;;;;1.80;1.52;;;;;;;21.18;37.33;101279.88;5069125;28;21635;-62
2022/12/25 10:18:06;;;;;;;1.40;1.30;;;;;;;21.18;37.30;101271.09;5072049;28;20036;-62
2022/12/25 10:20:34;;;;;;;1.70;1.60;;;;;;;21.09;37.28;101257.94;5067351;28;20474;-63
2022/12/25 10:23:04;;;;;;;1.65;1.55;;;;;;;21.10;37.25;101254.28;5071638;28;20107;-62
2022/12/25 10:25:31;;;;;;;1.70;1.60;;;;;;;21.06;37.32;101263.59;5073521;28;20602;-61
2022/12/25 10:28:04;;;;;;;2.40;1.70;;;;;;;21.09;37.41;101254.47;5073244;28;20750;-62
2022/12/25 10:30:31;;;;;;;2.63;1.60;;;;;;;21.10;37.31;101256.09;5070662;28;20526;-62
2022/12/25 10:32:57;;;;;;;1.77;1.50;;;;;;;21.07;37.34;101248.53;5073470;28;20032;-62
2022/12/25 10:35:26;;;;;;;1.80;1.58;;;;;;;21.06;37.53;101249.53;5076908;28;20040;-63
2022/12/25 10:38:00;;;;;;;1.77;1.63;;;;;;;21.08;37.38;101266.06;5076981;28;20110;-62
2022/12/25 10:40:26;;;;;;;2.20;1.50;;;;;;;21.01;37.58;101273.06;5075499;28;20047;-62
2022/12/25 10:43:10;;;;;;;1.90;1.60;;;;;;;21.05;37.46;101269.88;5080611;28;20775;-62
2022/12/25 10:45:46;;;;;;;1.92;1.55;;;;;;;21.04;37.33;101256.81;5077478;28;20044;-62
2022/12/25 10:48:24;;;;;;;1.90;1.73;;;;;;;21.03;37.36;101244.59;5070187;28;20131;-62
2022/12/25 10:50:50;;;;;;;2.33;1.90;;;;;;;21.07;37.42;101236.09;5070406;28;20025;-62
2022/12/25 10:53:20;;;;;;;1.98;1.60;;;;;;;21.07;37.44;101249.34;5071260;28;20054;-62
2022/12/25 10:56:02;;;;;;;4.25;2.10;;;;;;;21.00;37.85;101242.28;5070780;28;20050;-60
2022/12/25 10:58:28;;;;;;;5.72;2.30;;;;;;;21.00;39.06;101250.22;5067908;28;20030;-61
2022/12/25 11:00:57;;;;;;;4.10;1.80;;;;;;;20.98;38.90;101255.69;5070846;28;20039;-62
2022/12/25 11:03:30;;;;;;;6.43;2.22;;;;;;;21.06;38.28;101253.00;5065245;28;20044;-62
2022/12/25 11:05:56;;;;;;;5.70;2.05;;;;;;;21.06;37.91;101260.94;5069327;28;20086;-61
2022/12/25 11:08:25;;;;;;;4.72;1.63;;;;;;;21.35;37.61;101262.03;5073213;28;20031;-61
2022/12/25 11:11:04;;;;;;;3.22;1.67;;;;;;;21.40;37.50;101243.81;5076486;28;20075;-61
2022/12/25 11:13:33;;;;;;;4.78;2.13;;;;;;;21.42;37.32;101244.44;5073293;28;20048;-62
2022/12/25 11:16:09;;;;;;;3.03;1.48;;;;;;;21.43;37.32;101227.56;5081996;28;20031;-62
2022/12/25 11:18:45;;;;;;;3.50;1.70;;;;;;;21.31;38.37;101223.69;5069886;28;20389;-60
2022/12/25 11:21:36;;;;;;;4.45;2.10;;;;;;;21.28;38.61;101221.41;5067471;28;20742;-62
2022/12/25 11:24:03;;;;;;;3.65;1.80;;;;;;;21.29;38.17;101213.25;5065988;28;20051;-62
2022/12/25 11:26:35;;;;;;;2.42;1.73;;;;;;;21.21;38.12;101208.03;5073199;28;20128;-61
2022/12/25 11:29:02;;;;;;;2.65;1.90;;;;;;;21.16;38.05;101198.94;5073547;28;20085;-61
2022/12/25 11:31:57;;;;;;;3.55;1.90;;;;;;;21.12;38.07;101186.06;5067974;28;20032;-61
2022/12/25 11:34:27;;;;;;;4.57;2.10;;;;;;;21.11;38.25;101181.78;5068489;28;21893;-61
2022/12/25 11:36:53;;;;;;;;;;;;;;;21.09;38.10;101167.09;5072931;28;20048;-61
2022/12/25 11:39:23;;;;;;;4.00;2.10;;;;;;;21.02;38.30;101171.47;5072478;28;20472;-62
2022/12/25 11:42:19;;;;;;;2.00;1.60;;;;;;;21.18;37.94;101175.75;5074861;28;20040;-61
2022/12/25 11:44:52;;;;;;;4.90;1.92;;;;;;;21.13;38.07;101176.31;5063097;28;20056;-61
2022/12/25 11:47:20;;;;;;;2.00;1.80;;;;;;;21.12;38.00;101149.00;5076503;28;20051;-61
2022/12/25 11:49:55;;;;;;;2.17;1.55;;;;;;;21.13;37.94;101147.19;5078311;28;20097;-61
2022/12/25 11:52:22;;;;;;;3.35;1.80;;;;;;;21.11;37.96;101142.06;5071331;28;20131;-61
2022/12/25 11:54:58;;;;;;;2.80;1.75;;;;;;;21.19;37.89;101143.00;5076027;28;20047;-61
2022/12/25 11:57:27;;;;;;;2.70;1.63;;;;;;;21.11;37.77;101147.34;5076757;28;20047;-61
2022/12/25 12:00:05;;;;;;;2.22;1.55;;;;;;;21.08;38.16;101141.59;5078849;28;20107;-61
2022/12/25 12:02:50;;;;;;;2.80;1.55;;;;;;;21.13;38.03;101133.94;5074699;28;20371;-60
2022/12/25 12:05:22;;;;;;;2.88;1.67;;;;;;;21.16;37.77;101138.88;5068473;28;21607;-61
2022/12/25 12:08:05;;;;;;;2.05;1.85;;;;;;;21.12;37.74;101127.00;5070801;28;20039;-61
2022/12/25 12:10:57;;;;;;;2.75;1.40;;;;;;;21.07;37.98;101116.13;5071587;28;20040;-70
2022/12/25 12:13:30;;;;;;;2.45;1.60;;;;;;;21.13;37.57;101123.34;5073227;28;20042;-70
2022/12/25 12:15:57;;;;;;;2.63;1.58;;;;;;;21.11;37.83;101117.41;5075595;28;20040;-70
2022/12/25 12:18:25;;;;;;;1.60;1.50;;;;;;;21.07;37.97;101101.06;5077057;28;20112;-70
2022/12/25 12:21:00;;;;;;;3.45;1.77;;;;;;;21.06;37.80;101102.06;5076130;28;20119;-69
2022/12/25 12:23:27;;;;;;;2.78;1.60;;;;;;;21.04;37.90;101100.63;5074598;28;20040;-69
2022/12/25 12:25:54;;;;;;;2.92;1.90;;;;;;;21.06;37.88;101104.72;5070619;28;20041;-69
2022/12/25 12:28:23;;;;;;;1.75;1.40;;;;;;;21.03;37.69;101101.63;5071672;28;20044;-70
2022/12/25 12:31:00;;;;;;;2.55;1.40;;;;;;;21.01;37.88;101093.84;5072450;28;20923;-70
2022/12/25 12:33:30;;;;;;;1.73;1.35;;;;;;;21.01;37.85;101101.81;5070536;28;20037;-70
2022/12/25 12:35:56;;;;;;;1.58;1.45;;;;;;;21.03;37.69;101104.25;5072120;28;20055;-71
2022/12/25 12:38:23;;;;;;;3.05;1.50;;;;;;;21.01;38.01;101098.34;5066236;28;20043;-69
2022/12/25 12:40:56;;;;;;;1.20;1.10;;;;;;;21.00;37.77;101086.06;5071996;28;20861;-70
2022/12/25 12:43:29;;;;;;;1.75;1.40;;;;;;;21.00;37.86;101086.06;5069378;28;20508;-69
2022/12/25 12:45:56;;;;;;;2.15;1.70;;;;;;;21.20;37.52;101087.19;5071083;28;20027;-70
2022/12/25 12:48:29;;;;;;;1.23;1.13;;;;;;;21.40;37.10;101090.97;5072995;28;20486;-70
2022/12/25 12:51:02;;;;;;;1.70;1.50;;;;;;;21.42;37.21;101086.31;5072957;28;20473;-70
2022/12/25 12:53:30;;;;;;;1.25;1.15;;;;;;;21.45;36.81;101082.47;5068186;28;20270;-70
2022/12/25 12:56:07;;;;;;;1.83;1.30;;;;;;;21.46;36.93;101080.63;5070081;28;20523;-69
2022/12/25 12:58:39;;;;;;;1.10;1.00;;;;;;;21.42;37.28;101082.84;5069374;28;20081;-71
2022/12/25 13:01:23;;;;;;;2.42;1.30;;;;;;;21.36;37.38;101070.31;5068784;28;20843;-70
2022/12/25 13:04:07;;;;;;;1.05;1.00;;;;;;;21.31;37.47;101083.28;5072590;28;20040;-70
2022/12/25 13:07:07;;;;;;;1.48;1.23;;;;;;;21.18;37.74;101083.88;5069608;28;20032;-70
2022/12/25 13:09:44;;;;;;;;;;;;;;;21.13;37.64;101075.69;5055688;28;20068;-69
2022/12/25 13:12:11;;;;;;;2.42;1.40;;;;;;;21.13;37.69;101063.25;5068553;28;20694;-69
2022/12/25 13:14:37;;;;;;;2.22;1.27;;;;;;;21.05;37.92;101068.66;5075147;28;20043;-70
2022/12/25 13:17:06;;;;;;;1.48;1.30;;;;;;;21.03;38.07;101064.56;5074928;28;20036;-69
2022/12/25 13:19:34;;;;;;;1.73;1.35;;;;;;;21.03;38.09;101062.72;5071377;28;21004;-70
2022/12/25 13:22:02;;;;;;;1.50;1.27;;;;;;;21.08;37.91;101049.75;5071108;28;20458;-70